Time;durP1;ratioP1;P1;durP2;ratioP2;P2;SDS_P1;SDS_P2;PMS_P1;PMS_P2;Temp;Humidity;BMP_temperature;BMP_pressure;BME280_temperature;BME280_humidity;BME280_pressure;Samples;Min_cycle;Max_cycle;Signal;HPM_P1;HPM_P2
2022/12/07 00:01:07;;;;;;;8.32;2.80;;;3.70;99.90;;;;;;5096818;28;20135;-76
2022/12/07 00:03:33;;;;;;;6.03;2.95;;;3.70;99.90;;;;;;5097022;28;20040;-76
2022/12/07 00:05:59;;;;;;;6.25;2.80;;;3.60;99.90;;;;;;5097121;28;20058;-76
2022/12/07 00:08:25;;;;;;;5.10;3.17;;;3.60;99.90;;;;;;5096916;28;20509;-76
2022/12/07 00:10:50;;;;;;;9.18;3.10;;;3.50;99.90;;;;;;5097036;28;20074;-76
2022/12/07 00:13:16;;;;;;;5.18;2.72;;;3.50;99.90;;;;;;5096939;28;20044;-76
2022/12/07 00:15:42;;;;;;;4.97;3.00;;;3.50;99.90;;;;;;5096984;28;20069;-76
2022/12/07 00:18:07;;;;;;;8.82;2.80;;;3.40;99.90;;;;;;5096548;28;20040;-76
2022/12/07 00:20:33;;;;;;;3.92;2.95;;;3.40;99.90;;;;;;5096503;28;20498;-76
2022/12/07 00:22:59;;;;;;;5.82;2.67;;;3.30;99.90;;;;;;5096576;28;20063;-76
2022/12/07 00:25:25;;;;;;;4.78;2.80;;;3.30;99.90;;;;;;5096345;28;20040;-76
2022/12/07 00:27:52;;;;;;;8.13;2.85;;;3.30;99.90;;;;;;5096835;28;20114;-76
2022/12/07 00:30:18;;;;;;;9.68;2.85;;;3.30;99.90;;;;;;5096348;28;20377;-76
2022/12/07 00:32:43;;;;;;;8.45;2.72;;;3.20;99.90;;;;;;5096535;28;20062;-76
2022/12/07 00:35:09;;;;;;;6.75;2.65;;;3.20;99.90;;;;;;5096207;28;20092;-75
2022/12/07 00:37:34;;;;;;;6.18;2.60;;;3.20;99.90;;;;;;5096357;28;20043;-76
2022/12/07 00:40:00;;;;;;;10.52;2.40;;;3.20;99.90;;;;;;5095828;28;20083;-76
2022/12/07 00:42:26;;;;;;;2.83;2.13;;;3.20;99.90;;;;;;5096004;28;20047;-76
2022/12/07 00:44:51;;;;;;;9.85;2.78;;;3.20;99.90;;;;;;5096386;28;20044;-76
2022/12/07 00:47:17;;;;;;;7.65;2.40;;;3.20;99.90;;;;;;5095813;28;20044;-76
2022/12/07 00:49:42;;;;;;;6.13;2.50;;;3.10;99.90;;;;;;5095602;28;20391;-75
2022/12/07 00:52:08;;;;;;;6.90;2.28;;;3.20;99.90;;;;;;5095681;28;20059;-76
2022/12/07 00:54:33;;;;;;;5.60;2.40;;;3.10;99.90;;;;;;5095650;28;20044;-76
2022/12/07 00:56:59;;;;;;;7.82;2.60;;;3.10;99.90;;;;;;5095712;28;20458;-76
2022/12/07 00:59:25;;;;;;;16.20;2.67;;;3.10;99.90;;;;;;5095709;28;20055;-76
2022/12/07 01:01:50;;;;;;;7.18;2.90;;;3.10;99.90;;;;;;5094767;28;20414;-75
2022/12/07 01:04:16;;;;;;;8.68;2.40;;;3.10;99.90;;;;;;5095743;28;20051;-76
2022/12/07 01:06:41;;;;;;;5.28;2.40;;;3.10;99.90;;;;;;5095606;28;20040;-76
2022/12/07 01:09:07;;;;;;;7.45;2.30;;;3.10;99.90;;;;;;5095628;28;20101;-76
2022/12/07 01:11:32;;;;;;;8.27;2.42;;;3.10;99.90;;;;;;5095402;28;20048;-76
2022/12/07 01:14:00;;;;;;;4.10;2.50;;;3.00;99.90;;;;;;5095848;28;20040;-76
2022/12/07 01:16:26;;;;;;;7.10;2.70;;;3.00;99.90;;;;;;5095429;28;20052;-76
2022/12/07 01:18:54;;;;;;;10.38;2.50;;;3.00;99.90;;;;;;5095301;28;20040;-76
2022/12/07 01:21:22;;;;;;;6.10;2.67;;;2.90;99.90;;;;;;5095205;28;20510;-76
2022/12/07 01:23:49;;;;;;;7.95;2.65;;;2.90;99.90;;;;;;5095231;28;20044;-76
2022/12/07 01:26:17;;;;;;;5.13;2.30;;;2.90;99.90;;;;;;5094815;28;20139;-76
2022/12/07 01:28:43;;;;;;;10.52;2.58;;;2.90;99.90;;;;;;5095591;28;20519;-76
2022/12/07 01:31:17;;;;;;;6.97;2.35;;;2.90;99.90;;;;;;5093638;28;20480;-76
2022/12/07 01:33:45;;;;;;;8.63;2.33;;;2.90;99.90;;;;;;5095084;28;20353;-76
2022/12/07 01:36:14;;;;;;;6.65;2.20;;;3.00;99.90;;;;;;5094785;28;20088;-76
2022/12/07 01:38:40;;;;;;;10.73;2.45;;;3.00;99.90;;;;;;5094825;28;20134;-76
2022/12/07 01:41:05;;;;;;;8.45;2.47;;;3.00;99.90;;;;;;5094814;28;20078;-76
2022/12/07 01:43:33;;;;;;;9.20;2.67;;;3.00;99.90;;;;;;5095361;28;20075;-76
2022/12/07 01:45:59;;;;;;;9.68;2.40;;;3.00;99.90;;;;;;5094798;28;20083;-76
2022/12/07 01:48:31;;;;;;;3.35;2.30;;;2.90;99.90;;;;;;5094622;28;20044;-75
2022/12/07 01:51:03;;;;;;;4.75;2.30;;;2.90;99.90;;;;;;5094863;28;20052;-76
2022/12/07 01:53:30;;;;;;;2.53;2.00;;;2.90;99.90;;;;;;5095280;28;20059;-76
2022/12/07 01:55:57;;;;;;;4.07;2.40;;;2.90;99.90;;;;;;5094576;28;20502;-75
2022/12/07 01:58:24;;;;;;;;;;;2.80;99.90;;;;;;5095295;28;20054;-76
2022/12/07 02:00:49;;;;;;;9.70;2.53;;;2.80;99.90;;;;;;5094428;28;19919;-76
2022/12/07 02:03:36;;;;;;;3.58;2.28;;;2.80;99.90;;;;;;5094494;28;20036;-77
2022/12/07 02:06:02;;;;;;;3.15;2.20;;;2.80;99.90;;;;;;5094884;28;20044;-75
2022/12/07 02:08:28;;;;;;;6.68;2.17;;;2.70;99.90;;;;;;5094477;28;20040;-75
2022/12/07 02:10:54;;;;;;;3.35;2.15;;;2.70;99.90;;;;;;5094692;28;20468;-76
2022/12/07 02:13:24;;;;;;;8.88;2.72;;;2.70;99.90;;;;;;5094340;28;20051;-77
2022/12/07 02:16:07;;;;;;;8.50;2.50;;;2.70;99.90;;;;;;5094271;28;20047;-76
2022/12/07 02:19:05;;;;;;;8.20;2.40;;;2.80;99.90;;;;;;5095004;28;20433;-76
2022/12/07 02:21:41;;;;;;;6.93;2.30;;;2.80;99.90;;;;;;5062946;28;20105;-76
2022/12/07 02:24:13;;;;;;;8.50;2.13;;;2.90;99.90;;;;;;5094518;28;20075;-76
2022/12/07 02:27:06;;;;;;;5.63;2.17;;;2.90;99.90;;;;;;5094566;28;20346;-76
2022/12/07 02:29:35;;;;;;;3.58;2.03;;;3.00;99.90;;;;;;5094359;28;20487;-76
2022/12/07 02:32:17;;;;;;;4.32;2.20;;;3.00;99.90;;;;;;5094310;28;20048;-76
2022/12/07 02:34:50;;;;;;;7.07;2.20;;;3.00;99.90;;;;;;5093956;28;20137;-76
2022/12/07 02:37:34;;;;;;;3.20;1.80;;;3.10;99.90;;;;;;5093849;28;20392;-76
2022/12/07 02:40:18;;;;;;;7.80;1.98;;;3.20;99.90;;;;;;5094366;28;20047;-77
2022/12/07 02:42:49;;;;;;;3.80;1.88;;;3.20;99.90;;;;;;5093881;28;20404;-76
2022/12/07 02:45:18;;;;;;;5.70;2.10;;;3.30;99.90;;;;;;5093953;28;20075;-77
2022/12/07 02:47:48;;;;;;;3.70;1.85;;;3.30;99.90;;;;;;5093782;28;20113;-77
2022/12/07 02:50:14;;;;;;;4.45;2.05;;;3.30;99.90;;;;;;5094203;28;20055;-77
2022/12/07 02:52:40;;;;;;;7.95;2.20;;;3.30;99.90;;;;;;5093820;28;20048;-76
2022/12/07 02:55:07;;;;;;;5.20;1.90;;;3.30;99.90;;;;;;5093802;28;20120;-76
2022/12/07 02:57:45;;;;;;;4.38;2.10;;;3.30;99.90;;;;;;5093773;28;20062;-77
2022/12/07 03:00:17;;;;;;;7.45;2.42;;;3.20;99.90;;;;;;5093367;28;20553;-76
2022/12/07 03:02:52;;;;;;;4.55;2.03;;;3.20;99.90;;;;;;5093632;28;20050;-77
2022/12/07 03:05:39;;;;;;;11.88;2.10;;;3.20;99.90;;;;;;5093689;28;20127;-76
2022/12/07 03:08:13;;;;;;;8.73;2.33;;;3.10;99.90;;;;;;5093812;28;20132;-76
2022/12/07 03:11:04;;;;;;;7.03;2.30;;;3.10;99.90;;;;;;5093540;28;20040;-77
2022/12/07 03:13:53;;;;;;;5.68;2.40;;;3.00;99.90;;;;;;5093495;28;20069;-76
2022/12/07 03:16:33;;;;;;;5.47;2.22;;;3.00;99.90;;;;;;5093181;28;20130;-76
2022/12/07 03:19:27;;;;;;;13.55;2.50;;;3.00;99.90;;;;;;5093705;28;20132;-77
2022/12/07 03:22:03;;;;;;;4.53;2.47;;;2.90;99.90;;;;;;5090660;28;20399;-76
2022/12/07 03:24:35;;;;;;;7.38;2.67;;;2.90;99.90;;;;;;5094474;28;20040;-76
2022/12/07 03:27:18;;;;;;;9.85;2.97;;;2.90;99.90;;;;;;5098331;28;20048;-76
2022/12/07 03:29:49;;;;;;;8.45;2.78;;;2.80;99.90;;;;;;5097779;28;20052;-77
2022/12/07 03:32:28;;;;;;;7.15;3.13;;;2.80;99.90;;;;;;5097973;28;20396;-76
2022/12/07 03:35:03;;;;;;;6.35;2.90;;;2.70;99.90;;;;;;5097646;28;20438;-76
2022/12/07 03:37:36;;;;;;;6.07;2.70;;;2.80;99.90;;;;;;5096387;28;20055;-76
2022/12/07 03:40:28;;;;;;;9.00;2.70;;;2.80;99.90;;;;;;5097234;28;20055;-76
2022/12/07 03:42:55;;;;;;;4.38;2.40;;;2.80;99.90;;;;;;5097476;28;20036;-76
2022/12/07 03:45:26;;;;;;;5.13;2.70;;;2.80;99.90;;;;;;5097156;28;20422;-77
2022/12/07 03:48:08;;;;;;;6.45;2.47;;;2.80;99.90;;;;;;5097148;28;20048;-76
2022/12/07 03:51:08;;;;;;;5.85;2.20;;;2.80;99.90;;;;;;5097500;28;20079;-76
2022/12/07 03:53:48;;;;;;;12.75;3.10;;;2.80;99.90;;;;;;5093468;28;20113;-76
2022/12/07 03:56:14;;;;;;;5.65;2.55;;;2.80;99.90;;;;;;5097160;28;20122;-77
2022/12/07 03:58:41;;;;;;;10.30;2.38;;;2.80;99.90;;;;;;5096850;28;20044;-76
2022/12/07 04:01:07;;;;;;;4.53;2.38;;;2.70;99.90;;;;;;5096807;28;20376;-76
2022/12/07 04:03:33;;;;;;;8.00;2.33;;;2.70;99.90;;;;;;5096810;28;20051;-77
2022/12/07 04:05:59;;;;;;;7.05;2.13;;;2.70;99.90;;;;;;5096041;28;20135;-75
2022/12/07 04:08:25;;;;;;;2.83;2.17;;;2.70;99.90;;;;;;5096763;28;20054;-77
2022/12/07 04:10:51;;;;;;;3.83;2.47;;;2.60;99.90;;;;;;5096744;28;20040;-76
2022/12/07 04:13:16;;;;;;;4.15;2.40;;;2.60;99.90;;;;;;5096679;28;20181;-76
2022/12/07 04:15:42;;;;;;;5.05;2.10;;;2.60;99.90;;;;;;5096613;28;20040;-76
2022/12/07 04:18:07;;;;;;;7.25;2.20;;;2.50;99.90;;;;;;5096547;28;20165;-76
2022/12/07 04:20:33;;;;;;;6.43;2.10;;;2.50;99.90;;;;;;5096442;28;20054;-76
2022/12/07 04:22:58;;;;;;;4.70;2.30;;;2.50;99.90;;;;;;5096346;28;20525;-77
2022/12/07 04:25:24;;;;;;;3.50;1.88;;;2.50;99.90;;;;;;5095476;28;20039;-77
2022/12/07 04:27:50;;;;;;;4.85;2.65;;;2.50;99.90;;;;;;5095963;28;20059;-76
2022/12/07 04:30:15;;;;;;;6.07;2.13;;;2.50;99.90;;;;;;5096326;28;20087;-76
2022/12/07 04:32:41;;;;;;;3.90;2.30;;;2.50;99.90;;;;;;5096660;28;20043;-76
2022/12/07 04:35:07;;;;;;;4.30;2.15;;;2.50;99.90;;;;;;5096231;28;20377;-76
2022/12/07 04:37:33;;;;;;;4.20;2.00;;;2.40;99.90;;;;;;5094864;28;20040;-76
2022/12/07 04:39:58;;;;;;;4.72;2.50;;;2.40;99.90;;;;;;5096227;28;20510;-77
2022/12/07 04:42:24;;;;;;;3.47;1.90;;;2.40;99.90;;;;;;5096361;28;20093;-76
2022/12/07 04:44:50;;;;;;;3.10;1.77;;;2.30;99.90;;;;;;5095782;28;20040;-76
2022/12/07 04:47:16;;;;;;;6.72;2.20;;;2.30;99.90;;;;;;5095989;28;20484;-76
2022/12/07 04:49:42;;;;;;;7.13;2.10;;;2.20;99.90;;;;;;5095931;28;20069;-76
2022/12/07 04:52:07;;;;;;;5.95;2.15;;;2.20;99.90;;;;;;5096340;28;20166;-76
2022/12/07 04:54:33;;;;;;;9.32;2.25;;;2.10;99.90;;;;;;5096163;28;20043;-77
2022/12/07 04:56:58;;;;;;;5.63;2.00;;;2.10;99.90;;;;;;5096200;28;20068;-76
2022/12/07 04:59:24;;;;;;;2.88;2.28;;;2.00;99.90;;;;;;5095927;28;20459;-77
2022/12/07 05:01:50;;;;;;;4.95;1.98;;;2.00;99.90;;;;;;5095866;28;20063;-77
2022/12/07 05:04:15;;;;;;;8.13;2.58;;;2.00;99.90;;;;;;5095423;28;20500;-76
2022/12/07 05:06:41;;;;;;;9.50;2.20;;;1.90;99.90;;;;;;5095662;28;20048;-76
2022/12/07 05:09:07;;;;;;;4.53;2.33;;;1.90;99.90;;;;;;5095569;28;20488;-76
2022/12/07 05:11:39;;;;;;;7.30;2.47;;;1.80;99.90;;;;;;5095459;28;20040;-76
2022/12/07 05:14:16;;;;;;;5.47;2.25;;;1.80;99.90;;;;;;5094234;28;20044;-77
2022/12/07 05:16:43;;;;;;;13.10;2.65;;;1.80;99.90;;;;;;5095890;28;20483;-76
2022/12/07 05:19:10;;;;;;;4.38;2.20;;;1.80;99.90;;;;;;5094248;28;20040;-76
2022/12/07 05:21:36;;;;;;;7.65;2.25;;;1.70;99.90;;;;;;5095187;28;20036;-76
2022/12/07 05:24:03;;;;;;;10.25;2.53;;;1.70;99.90;;;;;;5095530;28;20401;-76
2022/12/07 05:26:29;;;;;;;7.03;2.38;;;1.70;99.90;;;;;;5095400;28;20073;-77
2022/12/07 05:28:56;;;;;;;5.90;2.10;;;1.70;99.90;;;;;;5095103;28;20032;-76
2022/12/07 05:31:21;;;;;;;8.98;2.35;;;1.70;99.90;;;;;;5095294;28;20040;-76
2022/12/07 05:33:47;;;;;;;6.40;2.47;;;1.70;99.90;;;;;;5095225;28;20119;-76
2022/12/07 05:36:13;;;;;;;7.85;2.20;;;1.70;99.90;;;;;;5094794;28;20510;-76
2022/12/07 05:38:38;;;;;;;12.25;2.80;;;1.70;99.90;;;;;;5094537;28;20036;-76
2022/12/07 05:41:06;;;;;;;4.85;2.35;;;1.80;99.90;;;;;;5094515;28;20044;-76
2022/12/07 05:43:31;;;;;;;7.75;2.20;;;1.90;99.90;;;;;;5094874;28;20442;-76
2022/12/07 05:45:57;;;;;;;6.82;2.55;;;2.00;99.90;;;;;;5094825;28;20472;-76
2022/12/07 05:48:23;;;;;;;11.20;2.72;;;2.00;99.90;;;;;;5094692;28;20127;-76
2022/12/07 05:50:50;;;;;;;7.05;2.65;;;2.10;99.90;;;;;;5095027;28;20040;-76
2022/12/07 05:53:16;;;;;;;6.55;2.47;;;2.20;99.90;;;;;;5095008;28;20083;-77
2022/12/07 05:55:42;;;;;;;8.23;2.47;;;2.30;99.90;;;;;;5094709;28;20135;-76
2022/12/07 06:00:55;;;;;;;11.02;2.70;;;2.40;99.90;;;;;;5094950;28;20044;-76
2022/12/07 06:03:20;;;;;;;7.60;2.58;;;2.40;99.90;;;;;;5094919;28;20044;-77
2022/12/07 06:05:46;;;;;;;7.20;2.50;;;2.40;99.90;;;;;;5094676;28;20502;-77
2022/12/07 06:08:12;;;;;;;9.82;2.05;;;2.40;99.90;;;;;;5094603;28;20097;-76
2022/12/07 06:10:37;;;;;;;6.10;1.92;;;2.40;99.90;;;;;;5094894;28;20048;-77
2022/12/07 06:13:03;;;;;;;4.93;2.28;;;2.40;99.90;;;;;;5094368;28;20040;-76
2022/12/07 06:15:28;;;;;;;5.78;2.28;;;2.30;99.90;;;;;;5094741;28;20080;-76
2022/12/07 06:17:54;;;;;;;3.20;2.25;;;2.30;99.90;;;;;;5094349;28;20044;-77
2022/12/07 06:20:19;;;;;;;4.18;1.88;;;2.30;99.90;;;;;;5094317;28;20059;-76
2022/12/07 06:22:45;;;;;;;6.18;2.25;;;2.20;99.90;;;;;;5094065;28;20051;-77
2022/12/07 06:25:11;;;;;;;4.82;2.10;;;2.20;99.90;;;;;;5093910;28;20086;-77
2022/12/07 06:27:36;;;;;;;6.15;2.20;;;2.20;99.90;;;;;;5094977;28;20503;-76
2022/12/07 06:30:08;;;;;;;6.53;2.38;;;2.10;99.90;;;;;;5094096;28;20040;-76
2022/12/07 06:32:34;;;;;;;5.22;2.22;;;2.10;99.90;;;;;;5094142;28;20079;-77
2022/12/07 06:35:00;;;;;;;9.65;2.58;;;2.10;99.90;;;;;;5094028;28;20156;-82
2022/12/07 06:37:26;;;;;;;9.82;2.42;;;2.00;99.90;;;;;;5094051;28;20054;-75
2022/12/07 06:39:51;;;;;;;11.15;2.50;;;2.00;99.90;;;;;;5093867;28;20048;-76
2022/12/07 06:42:17;;;;;;;9.23;1.83;;;2.00;99.90;;;;;;5093765;28;20040;-77
2022/12/07 06:44:42;;;;;;;9.02;2.70;;;2.00;99.90;;;;;;5092988;28;20109;-78
2022/12/07 06:47:09;;;;;;;6.22;2.53;;;1.90;99.90;;;;;;5094128;28;20051;-76
2022/12/07 06:49:34;;;;;;;8.38;2.47;;;1.90;99.90;;;;;;5093865;28;20044;-76
2022/12/07 06:52:00;;;;;;;3.50;2.22;;;1.90;99.90;;;;;;5093830;28;20043;-75
2022/12/07 06:54:26;;;;;;;8.55;2.50;;;1.80;99.90;;;;;;5093749;28;20109;-75
2022/12/07 06:56:51;;;;;;;6.93;2.30;;;1.80;99.90;;;;;;5093874;28;20052;-75
2022/12/07 06:59:17;;;;;;;6.68;2.15;;;1.80;99.90;;;;;;5093100;28;20044;-75
2022/12/07 07:01:43;;;;;;;7.45;2.55;;;1.80;99.90;;;;;;5093673;28;20123;-75
2022/12/07 07:04:08;;;;;;;7.65;2.22;;;1.80;99.90;;;;;;5093507;28;20051;-75
2022/12/07 07:06:34;;;;;;;5.97;2.53;;;1.70;99.90;;;;;;5093570;28;20051;-75
2022/12/07 07:08:59;;;;;;;5.28;2.47;;;1.70;99.90;;;;;;5093625;28;20109;-74
2022/12/07 07:11:25;;;;;;;9.13;2.40;;;1.70;99.90;;;;;;5093669;28;20090;-75
2022/12/07 07:13:50;;;;;;;5.15;2.33;;;1.70;99.90;;;;;;5094014;28;20108;-75
2022/12/07 07:16:16;;;;;;;7.47;2.92;;;1.80;99.90;;;;;;5093333;28;20670;-75
2022/12/07 07:18:42;;;;;;;8.82;2.92;;;1.80;99.90;;;;;;5093707;28;20114;-73
2022/12/07 07:21:07;;;;;;;7.13;2.30;;;1.80;99.90;;;;;;5093414;28;20538;-79
2022/12/07 07:23:33;;;;;;;5.22;2.13;;;1.80;99.90;;;;;;5093403;28;20123;-75
2022/12/07 07:25:58;;;;;;;5.13;2.42;;;1.80;99.90;;;;;;5093664;28;20484;-74
2022/12/07 07:28:24;;;;;;;8.70;2.72;;;1.90;99.90;;;;;;5092575;28;20101;-74
2022/12/07 07:30:50;;;;;;;5.55;2.38;;;1.90;99.90;;;;;;5093449;28;20503;-76
2022/12/07 07:33:15;;;;;;;7.07;2.40;;;1.90;99.90;;;;;;5093376;28;20044;-76
2022/12/07 07:35:41;;;;;;;5.28;2.33;;;2.00;99.90;;;;;;5093419;28;20040;-76
2022/12/07 07:38:07;;;;;;;5.40;2.33;;;2.00;99.90;;;;;;5092333;28;20089;-76
2022/12/07 07:40:33;;;;;;;11.77;2.13;;;2.00;99.90;;;;;;5093367;28;20047;-76
2022/12/07 07:42:58;;;;;;;3.78;2.53;;;2.00;99.90;;;;;;5093836;28;20080;-76
2022/12/07 07:45:26;;;;;;;17.58;3.45;;;2.10;99.90;;;;;;5093832;28;20043;-77
2022/12/07 07:47:51;;;;;;;7.45;2.47;;;2.10;99.90;;;;;;5094010;28;20051;-77
2022/12/07 07:50:18;;;;;;;7.38;2.50;;;2.10;99.90;;;;;;5093889;28;20400;-77
2022/12/07 07:52:44;;;;;;;10.52;4.85;;;2.10;99.90;;;;;;5093700;28;20051;-78
2022/12/07 07:55:10;;;;;;;8.30;4.30;;;2.10;99.90;;;;;;5092610;28;20049;-77
2022/12/07 07:57:37;;;;;;;12.68;4.20;;;2.10;99.90;;;;;;5093826;28;20365;-77
2022/12/07 08:00:08;;;;;;;10.70;6.63;;;2.10;99.90;;;;;;5093725;28;20048;-77
2022/12/07 08:02:34;;;;;;;13.25;6.78;;;2.10;99.90;;;;;;5091608;28;20127;-76
2022/12/07 08:04:59;;;;;;;6.03;3.92;;;2.10;99.90;;;;;;5093014;28;20452;-77
2022/12/07 08:07:27;;;;;;;9.05;4.43;;;2.10;99.90;;;;;;5092872;28;20044;-77
2022/12/07 08:09:53;;;;;;;10.65;3.88;;;2.10;99.90;;;;;;5092915;28;20483;-77
2022/12/07 08:12:19;;;;;;;7.30;3.20;;;2.20;99.90;;;;;;5096254;28;20040;-78
2022/12/07 08:14:44;;;;;;;5.07;2.70;;;2.20;99.90;;;;;;5096453;28;20059;-77
2022/12/07 08:17:10;;;;;;;7.18;2.45;;;2.30;99.90;;;;;;5096393;28;20130;-77
2022/12/07 08:19:36;;;;;;;5.78;2.58;;;2.30;99.90;;;;;;5096550;28;20052;-77
2022/12/07 08:22:02;;;;;;;9.30;2.35;;;2.40;99.90;;;;;;5094867;28;20040;-77
2022/12/07 08:24:27;;;;;;;5.23;2.20;;;2.40;99.90;;;;;;5096305;28;20087;-77
2022/12/07 08:26:53;;;;;;;6.65;2.50;;;2.50;99.90;;;;;;5094720;28;20091;-77
2022/12/07 08:29:19;;;;;;;9.15;2.60;;;3.30;99.90;;;;;;5096227;28;20117;-77
2022/12/07 08:31:44;;;;;;;7.07;2.25;;;2.60;99.90;;;;;;5096159;28;20040;-77
2022/12/07 08:34:11;;;;;;;9.48;2.40;;;2.50;99.90;;;;;;5096214;28;20503;-77
2022/12/07 08:36:37;;;;;;;9.55;2.47;;;2.60;99.90;;;;;;5095893;28;20131;-77
2022/12/07 08:39:03;;;;;;;7.45;2.70;;;2.50;99.90;;;;;;5096063;28;20105;-77
2022/12/07 08:41:28;;;;;;;8.52;4.45;;;2.50;99.90;;;;;;5095770;28;20512;-77
2022/12/07 08:43:54;;;;;;;11.75;6.03;;;2.50;99.90;;;;;;5096045;28;20040;-77
2022/12/07 08:46:33;;;;;;;8.63;2.63;;;2.50;99.90;;;;;;5096205;28;20052;-77
2022/12/07 08:49:04;;;;;;;7.47;3.25;;;2.60;99.90;;;;;;5095172;28;20438;-77
2022/12/07 08:51:30;;;;;;;5.00;2.40;;;2.50;99.90;;;;;;5095736;28;20044;-78
2022/12/07 08:53:58;;;;;;;4.43;2.55;;;2.50;99.90;;;;;;5094626;28;20040;-77
2022/12/07 08:56:24;;;;;;;6.00;2.50;;;2.60;99.90;;;;;;5095470;28;20086;-77
2022/12/07 08:58:50;;;;;;;4.57;2.55;;;2.50;99.90;;;;;;5095605;28;20080;-77
2022/12/07 09:01:16;;;;;;;9.80;2.88;;;3.00;99.90;;;;;;5095667;28;20083;-78
2022/12/07 09:03:41;;;;;;;10.20;2.90;;;2.50;99.90;;;;;;5095603;28;20040;-78
2022/12/07 09:06:08;;;;;;;6.63;2.40;;;2.50;99.90;;;;;;5095088;28;20484;-77
2022/12/07 09:08:39;;;;;;;5.85;2.25;;;2.50;99.90;;;;;;5094361;28;20137;-77
2022/12/07 09:11:04;;;;;;;3.75;2.50;;;2.50;99.90;;;;;;5077727;28;20048;-77
2022/12/07 09:13:30;;;;;;;7.85;4.05;;;2.60;99.90;;;;;;5095010;28;20134;-77
2022/12/07 09:15:56;;;;;;;7.78;2.75;;;2.60;99.90;;;;;;5095406;28;20480;-77
2022/12/07 09:18:24;;;;;;;6.33;3.00;;;2.70;99.90;;;;;;5095508;28;20094;-78
2022/12/07 09:20:49;;;;;;;;;;;2.80;99.90;;;;;;5095552;28;20278;-77
2022/12/07 09:23:15;;;;;;;6.68;2.90;;;2.90;99.90;;;;;;5094714;28;19920;-77
2022/12/07 09:25:40;;;;;;;6.82;4.50;;;3.00;99.90;;;;;;5095385;28;20043;-77
2022/12/07 09:28:06;;;;;;;8.23;3.80;;;3.10;99.90;;;;;;5095741;28;20604;-77
2022/12/07 09:30:32;;;;;;;8.25;3.60;;;3.10;99.90;;;;;;5095678;28;20438;-77
2022/12/07 09:32:58;;;;;;;6.95;4.05;;;3.10;99.90;;;;;;5095583;28;20044;-76
2022/12/07 09:35:24;;;;;;;10.80;6.05;;;3.10;99.90;;;;;;5095233;28;20044;-76
2022/12/07 09:37:50;;;;;;;7.65;4.70;;;3.10;99.90;;;;;;5095076;28;20054;-76
2022/12/07 09:40:18;;;;;;;8.48;6.65;;;3.10;99.90;;;;;;5094691;28;20044;-76
2022/12/07 09:42:53;;;;;;;7.05;3.97;;;3.10;99.90;;;;;;5094539;28;20123;-76
2022/12/07 09:45:34;;;;;;;8.68;4.80;;;3.10;99.90;;;;;;5094525;28;20551;-76
2022/12/07 09:47:59;;;;;;;8.68;5.00;;;3.10;99.90;;;;;;5094351;28;20476;-76
2022/12/07 09:50:27;;;;;;;7.93;3.65;;;3.20;99.90;;;;;;5093647;28;20047;-75
2022/12/07 09:53:01;;;;;;;8.20;3.03;;;3.40;99.90;;;;;;5094690;28;20044;-71
2022/12/07 09:55:30;;;;;;;5.60;2.78;;;3.40;99.90;;;;;;5094685;28;20119;-73
2022/12/07 09:57:58;;;;;;;6.85;3.42;;;3.50;99.90;;;;;;5094325;28;20044;-73
2022/12/07 10:00:23;;;;;;;;;;;3.60;99.90;;;;;;5094915;28;20186;-75
2022/12/07 10:03:00;;;;;;;8.52;3.30;;;3.80;99.90;;;;;;5093254;28;20030;-74
2022/12/07 10:05:50;;;;;;;11.73;3.47;;;3.90;99.90;;;;;;5094391;28;20059;-79
2022/12/07 10:08:17;;;;;;;6.85;2.55;;;3.90;99.90;;;;;;5094266;28;20069;-77
2022/12/07 10:10:43;;;;;;;7.80;2.63;;;4.00;99.90;;;;;;5093306;28;20048;-75
2022/12/07 10:13:15;;;;;;;11.90;3.13;;;4.10;99.90;;;;;;5093703;28;20044;-75
2022/12/07 10:15:50;;;;;;;10.10;3.03;;;4.10;99.90;;;;;;5074133;28;20080;-75
2022/12/07 10:18:37;;;;;;;6.15;2.47;;;4.10;99.90;;;;;;5074162;28;20066;-76
2022/12/07 10:21:29;;;;;;;6.43;3.28;;;4.20;99.90;;;;;;5073161;28;20134;-78
2022/12/07 10:24:10;;;;;;;7.72;2.53;;;4.20;99.90;;;;;;5071948;28;20057;-74
2022/12/07 10:26:52;;;;;;;10.30;3.33;;;4.30;99.90;;;;;;5073863;28;20131;-76
2022/12/07 10:29:34;;;;;;;8.68;2.70;;;4.30;99.90;;;;;;5074090;28;20049;-73
2022/12/07 10:32:06;;;;;;;9.10;3.88;;;4.30;99.90;;;;;;5074537;28;20052;-74
2022/12/07 10:34:34;;;;;;;6.43;2.63;;;4.30;99.90;;;;;;5072906;28;20041;-75
2022/12/07 10:37:14;;;;;;;7.78;2.83;;;4.30;99.90;;;;;;5074453;28;20498;-75
2022/12/07 10:39:51;;;;;;;7.78;2.55;;;4.40;99.90;;;;;;5073896;28;20044;-75
2022/12/07 10:42:22;;;;;;;7.30;2.42;;;4.40;99.90;;;;;;5073777;28;20036;-73
2022/12/07 10:44:49;;;;;;;5.28;2.22;;;4.40;99.90;;;;;;5072508;28;20044;-76
2022/12/07 10:47:33;;;;;;;;;;;4.50;99.90;;;;;;5073576;28;20047;-73
2022/12/07 10:50:20;;;;;;;7.80;2.55;;;4.50;99.90;;;;;;5073433;28;20406;-73
2022/12/07 10:52:54;;;;;;;11.48;2.65;;;4.50;99.90;;;;;;5073658;28;20431;-73
2022/12/07 10:55:35;;;;;;;7.50;2.17;;;4.50;99.90;;;;;;5073488;28;20075;-75
2022/12/07 10:58:45;;;;;;;7.07;2.65;;;4.50;99.90;;;;;;5073591;28;20051;-74
2022/12/07 11:01:25;;;;;;;7.32;2.28;;;4.50;99.90;;;;;;5073472;28;20041;-74
2022/12/07 11:04:22;;;;;;;5.45;2.35;;;4.50;99.90;;;;;;5073912;28;20094;-74
2022/12/07 11:07:26;;;;;;;9.27;2.72;;;4.50;99.90;;;;;;5072404;28;20131;-73
2022/12/07 11:10:02;;;;;;;6.55;3.03;;;4.50;99.90;;;;;;5073646;28;20075;-76
2022/12/07 11:12:46;;;;;;;7.78;2.75;;;4.50;99.90;;;;;;5074012;28;20040;-76
2022/12/07 11:15:33;;;;;;;6.88;2.88;;;4.60;99.90;;;;;;5073938;28;20055;-76
2022/12/07 11:18:19;;;;;;;7.78;2.47;;;4.60;99.90;;;;;;5074334;28;20045;-80
2022/12/07 11:21:07;;;;;;;4.30;2.45;;;4.60;99.90;;;;;;5074246;28;20057;-75
2022/12/07 11:23:57;;;;;;;12.48;2.55;;;4.60;99.90;;;;;;5073373;28;20045;-70
2022/12/07 11:26:38;;;;;;;4.65;2.42;;;4.60;99.90;;;;;;5073112;28;20060;-76
2022/12/07 11:29:34;;;;;;;11.20;3.05;;;4.70;99.90;;;;;;5073678;28;20049;-78
2022/12/07 11:31:59;;;;;;;8.90;2.83;;;4.70;99.90;;;;;;5073586;28;20045;-76
2022/12/07 11:34:55;;;;;;;5.95;2.50;;;4.70;99.90;;;;;;5073314;28;20048;-79
2022/12/07 11:37:28;;;;;;;13.10;2.67;;;4.70;99.90;;;;;;5069987;28;20110;-76
2022/12/07 11:40:06;;;;;;;8.05;2.60;;;4.70;99.90;;;;;;5074038;28;20127;-83
2022/12/07 11:42:36;;;;;;;;;;;4.70;99.90;;;;;;5073686;28;20047;-77
2022/12/07 11:45:25;;;;;;;6.03;2.50;;;4.70;99.90;;;;;;5073574;28;19989;-76
2022/12/07 11:48:09;;;;;;;5.95;2.38;;;4.70;99.90;;;;;;5077002;28;20040;-76
2022/12/07 11:50:40;;;;;;;6.15;2.35;;;4.70;99.90;;;;;;5077364;28;20094;-75
2022/12/07 11:53:09;;;;;;;8.10;2.45;;;5.70;99.90;;;;;;5077144;28;20547;-76
2022/12/07 11:55:52;;;;;;;4.88;2.25;;;4.80;99.90;;;;;;5077589;28;20060;-76
2022/12/07 11:58:42;;;;;;;9.02;2.53;;;4.90;99.90;;;;;;5077423;28;20056;-77
2022/12/07 12:01:20;;;;;;;5.63;2.28;;;4.90;99.90;;;;;;5077176;28;20049;-76
2022/12/07 12:03:56;;;;;;;5.28;2.38;;;5.00;99.90;;;;;;5077070;28;20090;-76
2022/12/07 12:06:22;;;;;;;5.68;2.88;;;5.10;99.90;;;;;;5077275;28;20044;-75
2022/12/07 12:09:12;;;;;;;3.47;2.20;;;5.20;99.90;;;;;;5076586;28;20041;-76
2022/12/07 12:12:01;;;;;;;5.22;2.08;;;5.30;99.90;;;;;;5075206;28;20506;-76
2022/12/07 12:14:41;;;;;;;6.63;2.42;;;5.40;99.90;;;;;;5076527;28;20040;-75
2022/12/07 12:17:32;;;;;;;8.27;2.97;;;5.50;99.90;;;;;;5076803;28;20048;-76
2022/12/07 12:20:15;;;;;;;5.68;2.22;;;5.60;99.90;;;;;;5076614;28;20045;-76
2022/12/07 12:22:45;;;;;;;4.38;2.15;;;5.70;99.90;;;;;;5076280;28;20045;-76
2022/12/07 12:25:24;;;;;;;6.38;1.98;;;5.80;99.90;;;;;;5076761;28;20054;-76
2022/12/07 12:27:51;;;;;;;5.32;2.05;;;5.80;99.90;;;;;;5076670;28;20103;-76
2022/12/07 12:30:30;;;;;;;4.07;2.42;;;5.80;99.90;;;;;;5076551;28;20040;-76
2022/12/07 12:33:03;;;;;;;6.80;2.80;;;5.80;99.90;;;;;;5076428;28;20044;-75
2022/12/07 12:35:38;;;;;;;5.53;1.95;;;5.80;99.90;;;;;;5076953;28;20127;-76
2022/12/07 12:38:33;;;;;;;6.70;2.42;;;5.80;99.90;;;;;;5076060;28;20136;-76
2022/12/07 12:41:01;;;;;;;7.40;2.00;;;5.70;99.90;;;;;;5075097;28;20068;-76
2022/12/07 12:43:59;;;;;;;6.35;2.08;;;5.70;99.90;;;;;;5075779;28;20396;-75
2022/12/07 12:46:33;;;;;;;5.72;2.00;;;5.70;99.90;;;;;;5052664;28;20067;-75
2022/12/07 12:49:17;;;;;;;11.73;2.38;;;5.60;99.90;;;;;;5075724;28;20068;-76
2022/12/07 12:51:46;;;;;;;4.13;1.73;;;5.60;99.90;;;;;;5075600;28;20061;-75
2022/12/07 12:54:18;;;;;;;4.72;2.13;;;5.60;99.90;;;;;;5075665;28;20064;-77
2022/12/07 12:57:03;;;;;;;7.78;2.17;;;5.60;99.90;;;;;;5075009;28;20098;-76
2022/12/07 12:59:31;;;;;;;4.10;1.98;;;5.60;99.90;;;;;;5075580;28;20485;-76
2022/12/07 13:02:34;;;;;;;8.40;2.20;;;5.50;99.90;;;;;;5075254;28;20489;-76
2022/12/07 13:05:07;;;;;;;4.78;2.20;;;5.50;99.90;;;;;;5075963;28;20044;-76
2022/12/07 13:07:49;;;;;;;8.40;2.00;;;5.50;99.90;;;;;;5075682;28;20515;-76
2022/12/07 13:10:30;;;;;;;6.07;2.22;;;5.40;99.90;;;;;;5075124;28;20400;-76
2022/12/07 13:13:13;;;;;;;6.85;2.25;;;5.40;99.90;;;;;;5074096;28;20049;-76
2022/12/07 13:15:45;;;;;;;9.00;2.28;;;5.40;99.90;;;;;;5075658;28;20408;-77
2022/12/07 13:18:29;;;;;;;5.38;1.77;;;5.30;99.90;;;;;;5075216;28;20055;-77
2022/12/07 13:20:59;;;;;;;9.73;2.10;;;5.30;99.90;;;;;;5075146;28;20048;-76